sensor_id;sensor_type;location;lat;lon;timestamp;pressure;altitude;pressure_sealevel;temperature;humidity
27712;BME280;2377;51.734;8.950;2022-07-09T00:02:20;99043.63;;;19.47;71.98
27712;BME280;2377;51.734;8.950;2022-07-09T00:04:47;99047.00;;;19.47;72.16
27712;BME280;2377;51.734;8.950;2022-07-09T00:07:14;99038.16;;;19.43;72.73
27712;BME280;2377;51.734;8.950;2022-07-09T00:09:41;99044.34;;;19.42;72.88
27712;BME280;2377;51.734;8.950;2022-07-09T00:12:09;99042.25;;;19.39;73.28
27712;BME280;2377;51.734;8.950;2022-07-09T00:14:37;99040.16;;;19.36;73.43
27712;BME280;2377;51.734;8.950;2022-07-09T00:17:05;99030.78;;;19.35;73.61
27712;BME280;2377;51.734;8.950;2022-07-09T00:19:32;99031.81;;;19.34;73.91
27712;BME280;2377;51.734;8.950;2022-07-09T00:21:59;99033.53;;;19.28;74.31
27712;BME280;2377;51.734;8.950;2022-07-09T00:24:26;99019.25;;;19.26;74.35
27712;BME280;2377;51.734;8.950;2022-07-09T00:26:53;99021.78;;;19.20;74.60
27712;BME280;2377;51.734;8.950;2022-07-09T00:29:21;99016.91;;;19.24;74.23
27712;BME280;2377;51.734;8.950;2022-07-09T00:31:49;99023.59;;;19.20;74.27
27712;BME280;2377;51.734;8.950;2022-07-09T00:34:16;99026.19;;;19.20;74.42
27712;BME280;2377;51.734;8.950;2022-07-09T00:36:44;99015.47;;;19.16;74.17
27712;BME280;2377;51.734;8.950;2022-07-09T00:39:12;99019.13;;;19.15;74.06
27712;BME280;2377;51.734;8.950;2022-07-09T00:41:39;99014.41;;;19.12;74.15
27712;BME280;2377;51.734;8.950;2022-07-09T00:44:06;99009.22;;;19.12;74.03
27712;BME280;2377;51.734;8.950;2022-07-09T00:46:33;99002.94;;;19.08;73.77
27712;BME280;2377;51.734;8.950;2022-07-09T00:49:01;99011.19;;;19.05;73.99
27712;BME280;2377;51.734;8.950;2022-07-09T00:51:32;99004.03;;;18.95;73.60
27712;BME280;2377;51.734;8.950;2022-07-09T00:54:01;98997.00;;;18.91;73.84
27712;BME280;2377;51.734;8.950;2022-07-09T00:56:30;98996.69;;;18.87;73.64
27712;BME280;2377;51.734;8.950;2022-07-09T00:58:58;98998.94;;;18.84;73.77
27712;BME280;2377;51.734;8.950;2022-07-09T01:01:26;98992.13;;;18.77;73.98
27712;BME280;2377;51.734;8.950;2022-07-09T01:03:54;98996.97;;;18.74;73.66
27712;BME280;2377;51.734;8.950;2022-07-09T01:06:23;98988.34;;;18.68;73.43
27712;BME280;2377;51.734;8.950;2022-07-09T01:08:50;98995.00;;;18.64;73.47
27712;BME280;2377;51.734;8.950;2022-07-09T01:11:17;98989.75;;;18.59;73.85
27712;BME280;2377;51.734;8.950;2022-07-09T01:13:44;98984.22;;;18.55;73.92
27712;BME280;2377;51.734;8.950;2022-07-09T01:16:12;98988.34;;;18.51;74.16
27712;BME280;2377;51.734;8.950;2022-07-09T01:18:43;98990.59;;;18.48;74.65
27712;BME280;2377;51.734;8.950;2022-07-09T01:21:12;98988.47;;;18.45;74.96
27712;BME280;2377;51.734;8.950;2022-07-09T01:23:39;98997.25;;;18.44;75.69
27712;BME280;2377;51.734;8.950;2022-07-09T01:26:08;98988.47;;;18.45;76.05
27712;BME280;2377;51.734;8.950;2022-07-09T01:28:35;98992.63;;;18.46;76.60
27712;BME280;2377;51.734;8.950;2022-07-09T01:31:02;98981.25;;;18.47;76.94
27712;BME280;2377;51.734;8.950;2022-07-09T01:33:29;98982.53;;;18.44;77.00
27712;BME280;2377;51.734;8.950;2022-07-09T01:35:57;98988.47;;;18.45;76.70
27712;BME280;2377;51.734;8.950;2022-07-09T01:38:26;98977.91;;;18.46;77.37
27712;BME280;2377;51.734;8.950;2022-07-09T01:40:53;98964.63;;;18.43;77.71
27712;BME280;2377;51.734;8.950;2022-07-09T01:43:20;98965.88;;;18.40;77.19
27712;BME280;2377;51.734;8.950;2022-07-09T01:45:47;98961.47;;;18.41;77.45
27712;BME280;2377;51.734;8.950;2022-07-09T01:48:14;98964.53;;;18.37;78.15
27712;BME280;2377;51.734;8.950;2022-07-09T01:50:42;98956.44;;;18.34;78.71
27712;BME280;2377;51.734;8.950;2022-07-09T01:53:09;98948.38;;;18.30;79.37
27712;BME280;2377;51.734;8.950;2022-07-09T01:55:38;98939.72;;;18.25;80.04
27712;BME280;2377;51.734;8.950;2022-07-09T01:58:05;98950.34;;;18.23;80.61
27712;BME280;2377;51.734;8.950;2022-07-09T02:00:32;98946.72;;;18.24;80.96
27712;BME280;2377;51.734;8.950;2022-07-09T02:02:59;98941.78;;;18.23;80.84
27712;BME280;2377;51.734;8.950;2022-07-09T02:05:26;98940.97;;;18.22;80.75
27712;BME280;2377;51.734;8.950;2022-07-09T02:07:53;98938.88;;;18.19;81.13
27712;BME280;2377;51.734;8.950;2022-07-09T02:10:20;98939.66;;;18.20;81.00
27712;BME280;2377;51.734;8.950;2022-07-09T02:12:49;98950.78;;;18.20;81.39
27712;BME280;2377;51.734;8.950;2022-07-09T02:15:16;98937.31;;;18.18;81.96
27712;BME280;2377;51.734;8.950;2022-07-09T02:17:43;98944.53;;;18.16;82.28
27712;BME280;2377;51.734;8.950;2022-07-09T02:20:10;98939.91;;;18.18;82.77
27712;BME280;2377;51.734;8.950;2022-07-09T02:22:37;98929.28;;;18.20;82.42
27712;BME280;2377;51.734;8.950;2022-07-09T02:25:06;98929.63;;;18.23;82.52
27712;BME280;2377;51.734;8.950;2022-07-09T02:27:34;98926.00;;;18.24;82.98
27712;BME280;2377;51.734;8.950;2022-07-09T02:30:03;98922.41;;;18.25;83.15
27712;BME280;2377;51.734;8.950;2022-07-09T02:32:30;98916.75;;;18.28;82.76
27712;BME280;2377;51.734;8.950;2022-07-09T02:34:57;98915.50;;;18.31;83.17
27712;BME280;2377;51.734;8.950;2022-07-09T02:37:25;98915.28;;;18.32;83.14
27712;BME280;2377;51.734;8.950;2022-07-09T02:39:52;98921.22;;;18.33;83.34
27712;BME280;2377;51.734;8.950;2022-07-09T02:42:19;98917.88;;;18.32;83.84
27712;BME280;2377;51.734;8.950;2022-07-09T02:44:46;98924.03;;;18.31;83.81
27712;BME280;2377;51.734;8.950;2022-07-09T02:47:15;98919.41;;;18.33;83.54
27712;BME280;2377;51.734;8.950;2022-07-09T02:49:42;98921.00;;;18.34;83.38
27712;BME280;2377;51.734;8.950;2022-07-09T02:52:09;98910.16;;;18.37;83.21
27712;BME280;2377;51.734;8.950;2022-07-09T02:54:36;98918.50;;;18.40;83.62
27712;BME280;2377;51.734;8.950;2022-07-09T02:57:04;98910.72;;;18.40;83.58
27712;BME280;2377;51.734;8.950;2022-07-09T02:59:31;98913.06;;;18.41;83.52
27712;BME280;2377;51.734;8.950;2022-07-09T03:01:58;98915.13;;;18.39;84.11
27712;BME280;2377;51.734;8.950;2022-07-09T03:04:28;98916.84;;;18.33;84.33
27712;BME280;2377;51.734;8.950;2022-07-09T03:06:55;98914.78;;;18.35;84.30
27712;BME280;2377;51.734;8.950;2022-07-09T03:09:22;98903.88;;;18.33;84.60
27712;BME280;2377;51.734;8.950;2022-07-09T03:11:49;98911.09;;;18.31;84.87
27712;BME280;2377;51.734;8.950;2022-07-09T03:14:16;98907.44;;;18.27;85.43
27712;BME280;2377;51.734;8.950;2022-07-09T03:16:43;98913.84;;;18.25;85.87
27712;BME280;2377;51.734;8.950;2022-07-09T03:19:11;98911.94;;;18.20;85.86
27712;BME280;2377;51.734;8.950;2022-07-09T03:21:39;98916.81;;;18.16;86.74
27712;BME280;2377;51.734;8.950;2022-07-09T03:24:06;98911.56;;;18.11;86.40
27712;BME280;2377;51.734;8.950;2022-07-09T03:26:35;98921.03;;;18.06;87.04
27712;BME280;2377;51.734;8.950;2022-07-09T03:29:02;98919.25;;;18.06;87.00
27712;BME280;2377;51.734;8.950;2022-07-09T03:31:29;98926.22;;;18.06;87.34
27712;BME280;2377;51.734;8.950;2022-07-09T03:33:56;98910.13;;;18.04;87.64
27712;BME280;2377;51.734;8.950;2022-07-09T03:36:24;98921.50;;;18.03;87.42
27712;BME280;2377;51.734;8.950;2022-07-09T03:38:52;98923.63;;;18.06;87.26
27712;BME280;2377;51.734;8.950;2022-07-09T03:41:19;98915.97;;;18.11;87.49
27712;BME280;2377;51.734;8.950;2022-07-09T03:43:46;98919.16;;;18.01;87.40
27712;BME280;2377;51.734;8.950;2022-07-09T03:46:13;98913.28;;;18.06;87.35
27712;BME280;2377;51.734;8.950;2022-07-09T03:48:40;98914.22;;;18.00;87.90
27712;BME280;2377;51.734;8.950;2022-07-09T03:51:08;98915.78;;;18.01;87.83
27712;BME280;2377;51.734;8.950;2022-07-09T03:53:35;98918.63;;;17.99;87.92
27712;BME280;2377;51.734;8.950;2022-07-09T03:56:05;98919.41;;;18.00;87.86
27712;BME280;2377;51.734;8.950;2022-07-09T03:58:32;98910.13;;;18.04;88.04
27712;BME280;2377;51.734;8.950;2022-07-09T04:00:59;98925.81;;;17.97;88.32
27712;BME280;2377;51.734;8.950;2022-07-09T04:03:26;98921.97;;;18.00;88.57
27712;BME280;2377;51.734;8.950;2022-07-09T04:05:53;98909.59;;;18.02;88.21
27712;BME280;2377;51.734;8.950;2022-07-09T04:08:20;98920.66;;;17.97;88.64
27712;BME280;2377;51.734;8.950;2022-07-09T04:10:47;98913.09;;;17.95;88.81
27712;BME280;2377;51.734;8.950;2022-07-09T04:13:16;98913.34;;;17.94;88.99
27712;BME280;2377;51.734;8.950;2022-07-09T04:15:43;98902.19;;;17.93;89.07
27712;BME280;2377;51.734;8.950;2022-07-09T04:18:12;98907.59;;;17.92;89.42
27712;BME280;2377;51.734;8.950;2022-07-09T04:20:40;98913.25;;;17.89;89.18
27712;BME280;2377;51.734;8.950;2022-07-09T04:23:07;98913.34;;;17.94;89.21
27712;BME280;2377;51.734;8.950;2022-07-09T04:25:34;98909.66;;;17.90;89.35
27712;BME280;2377;51.734;8.950;2022-07-09T04:28:01;98904.47;;;17.90;89.61
27712;BME280;2377;51.734;8.950;2022-07-09T04:30:30;98912.00;;;17.91;89.68
27712;BME280;2377;51.734;8.950;2022-07-09T04:32:57;98907.59;;;17.92;89.86
27712;BME280;2377;51.734;8.950;2022-07-09T04:35:26;98905.56;;;17.94;89.47
27712;BME280;2377;51.734;8.950;2022-07-09T04:37:53;98905.81;;;17.92;90.01
27712;BME280;2377;51.734;8.950;2022-07-09T04:40:20;98907.00;;;18.02;89.48
27712;BME280;2377;51.734;8.950;2022-07-09T04:42:47;98900.44;;;18.11;89.12
27712;BME280;2377;51.734;8.950;2022-07-09T04:45:14;98906.06;;;18.08;89.20
27712;BME280;2377;51.734;8.950;2022-07-09T04:47:43;98907.66;;;18.09;89.44
27712;BME280;2377;51.734;8.950;2022-07-09T04:50:11;98914.84;;;18.07;89.48
27712;BME280;2377;51.734;8.950;2022-07-09T04:52:38;98918.69;;;18.04;89.67
27712;BME280;2377;51.734;8.950;2022-07-09T04:55:07;98906.75;;;18.03;89.73
27712;BME280;2377;51.734;8.950;2022-07-09T04:57:36;98912.28;;;18.07;89.30
27712;BME280;2377;51.734;8.950;2022-07-09T05:00:05;98902.47;;;18.09;88.98
27712;BME280;2377;51.734;8.950;2022-07-09T05:02:32;98905.63;;;18.11;88.79
27712;BME280;2377;51.734;8.950;2022-07-09T05:05:01;98897.94;;;18.16;88.86
27712;BME280;2377;51.734;8.950;2022-07-09T05:07:29;98898.63;;;18.11;88.91
27712;BME280;2377;51.734;8.950;2022-07-09T05:09:56;98894.94;;;18.24;88.41
27712;BME280;2377;51.734;8.950;2022-07-09T05:12:23;98897.94;;;18.16;88.49
27712;BME280;2377;51.734;8.950;2022-07-09T05:14:50;98895.91;;;18.18;88.80
27712;BME280;2377;51.734;8.950;2022-07-09T05:17:18;98902.06;;;18.17;88.81
27712;BME280;2377;51.734;8.950;2022-07-09T05:19:45;98891.25;;;18.20;88.85
27712;BME280;2377;51.734;8.950;2022-07-09T05:22:13;98889.91;;;18.17;88.76
27712;BME280;2377;51.734;8.950;2022-07-09T05:24:41;98889.47;;;18.21;88.66
27712;BME280;2377;51.734;8.950;2022-07-09T05:27:08;98892.34;;;18.24;88.26
27712;BME280;2377;51.734;8.950;2022-07-09T05:29:36;98894.50;;;18.27;87.77
27712;BME280;2377;51.734;8.950;2022-07-09T05:32:05;98889.94;;;18.34;87.22
27712;BME280;2377;51.734;8.950;2022-07-09T05:34:32;98879.59;;;18.34;87.16
27712;BME280;2377;51.734;8.950;2022-07-09T05:36:59;98879.59;;;18.34;87.64
27712;BME280;2377;51.734;8.950;2022-07-09T05:39:27;98891.50;;;18.35;87.20
27712;BME280;2377;51.734;8.950;2022-07-09T05:41:54;98889.13;;;18.34;86.14
27712;BME280;2377;51.734;8.950;2022-07-09T05:44:22;98897.59;;;18.29;86.19
27712;BME280;2377;51.734;8.950;2022-07-09T05:46:50;98897.44;;;18.36;85.83
27712;BME280;2377;51.734;8.950;2022-07-09T05:49:17;98896.44;;;18.37;85.81
27712;BME280;2377;51.734;8.950;2022-07-09T05:51:44;98895.25;;;18.45;85.45
27712;BME280;2377;51.734;8.950;2022-07-09T05:54:11;98896.66;;;18.52;85.17
27712;BME280;2377;51.734;8.950;2022-07-09T05:56:39;98891.38;;;18.64;85.10
27712;BME280;2377;51.734;8.950;2022-07-09T05:59:07;98901.38;;;18.72;84.99
27712;BME280;2377;51.734;8.950;2022-07-09T06:01:34;98908.66;;;18.75;84.40
27712;BME280;2377;51.734;8.950;2022-07-09T06:04:04;98906.53;;;18.72;84.30
27712;BME280;2377;51.734;8.950;2022-07-09T06:06:31;98910.28;;;18.65;84.72
27712;BME280;2377;51.734;8.950;2022-07-09T06:08:58;98905.75;;;18.55;84.78
27712;BME280;2377;51.734;8.950;2022-07-09T06:11:26;98909.38;;;18.54;84.79
27712;BME280;2377;51.734;8.950;2022-07-09T06:13:55;98912.69;;;18.49;85.40
27712;BME280;2377;51.734;8.950;2022-07-09T06:16:22;98905.91;;;18.48;85.22
27712;BME280;2377;51.734;8.950;2022-07-09T06:18:49;98905.53;;;18.40;85.40
27712;BME280;2377;51.734;8.950;2022-07-09T06:21:16;98905.63;;;18.45;85.51
27712;BME280;2377;51.734;8.950;2022-07-09T06:23:43;98905.47;;;18.34;85.47
27712;BME280;2377;51.734;8.950;2022-07-09T06:26:10;98915.03;;;18.34;85.63
27712;BME280;2377;51.734;8.950;2022-07-09T06:28:38;98912.53;;;18.39;85.70
27712;BME280;2377;51.734;8.950;2022-07-09T06:31:06;98916.44;;;18.42;85.97
27712;BME280;2377;51.734;8.950;2022-07-09T06:33:33;98919.13;;;18.47;85.59
27712;BME280;2377;51.734;8.950;2022-07-09T06:36:00;98920.44;;;18.32;86.54
27712;BME280;2377;51.734;8.950;2022-07-09T06:38:28;98918.66;;;18.33;86.40
27712;BME280;2377;51.734;8.950;2022-07-09T06:40:56;98919.41;;;18.33;86.54
27712;BME280;2377;51.734;8.950;2022-07-09T06:43:24;98922.16;;;18.44;86.66
27712;BME280;2377;51.734;8.950;2022-07-09T06:45:51;98921.00;;;18.51;86.83
27712;BME280;2377;51.734;8.950;2022-07-09T06:48:20;98921.22;;;18.50;86.05
27712;BME280;2377;51.734;8.950;2022-07-09T06:50:47;98921.00;;;18.51;86.15
27712;BME280;2377;51.734;8.950;2022-07-09T06:53:14;98926.41;;;18.50;85.43
27712;BME280;2377;51.734;8.950;2022-07-09T06:55:41;98924.91;;;18.54;85.22
27712;BME280;2377;51.734;8.950;2022-07-09T06:58:09;98928.50;;;18.53;85.29
27712;BME280;2377;51.734;8.950;2022-07-09T07:00:36;98926.03;;;18.58;85.22
27712;BME280;2377;51.734;8.950;2022-07-09T07:03:03;98918.31;;;18.63;84.94
27712;BME280;2377;51.734;8.950;2022-07-09T07:05:32;98913.75;;;18.70;84.35
27712;BME280;2377;51.734;8.950;2022-07-09T07:08:00;98916.53;;;18.80;83.77
27712;BME280;2377;51.734;8.950;2022-07-09T07:10:27;98921.38;;;18.94;83.41
27712;BME280;2377;51.734;8.950;2022-07-09T07:12:54;98918.28;;;18.97;83.17
27712;BME280;2377;51.734;8.950;2022-07-09T07:15:21;98920.88;;;18.97;82.60
27712;BME280;2377;51.734;8.950;2022-07-09T07:17:49;98923.00;;;19.00;82.13
27712;BME280;2377;51.734;8.950;2022-07-09T07:20:16;98917.03;;;18.99;82.23
27712;BME280;2377;51.734;8.950;2022-07-09T07:22:50;98923.19;;;18.93;82.22
27712;BME280;2377;51.734;8.950;2022-07-09T07:25:17;98922.88;;;18.90;81.76
27712;BME280;2377;51.734;8.950;2022-07-09T07:27:44;98917.13;;;18.88;81.26
27712;BME280;2377;51.734;8.950;2022-07-09T07:30:11;98910.06;;;18.83;80.94
27712;BME280;2377;51.734;8.950;2022-07-09T07:32:38;98913.16;;;18.80;81.81
27712;BME280;2377;51.734;8.950;2022-07-09T07:35:06;98909.84;;;18.85;81.80
27712;BME280;2377;51.734;8.950;2022-07-09T07:37:34;98919.94;;;19.03;81.42
27712;BME280;2377;51.734;8.950;2022-07-09T07:40:04;98908.19;;;19.17;80.62
27712;BME280;2377;51.734;8.950;2022-07-09T07:42:31;98913.63;;;19.38;81.02
27712;BME280;2377;51.734;8.950;2022-07-09T07:44:58;98904.44;;;19.52;80.04
27712;BME280;2377;51.734;8.950;2022-07-09T07:47:25;98906.63;;;19.65;80.08
27712;BME280;2377;51.734;8.950;2022-07-09T07:49:52;98901.66;;;19.81;78.55
27712;BME280;2377;51.734;8.950;2022-07-09T07:52:20;98905.63;;;19.94;77.51
27712;BME280;2377;51.734;8.950;2022-07-09T07:54:47;98911.31;;;20.18;77.90
27712;BME280;2377;51.734;8.950;2022-07-09T07:57:15;98903.84;;;20.26;76.15
27712;BME280;2377;51.734;8.950;2022-07-09T07:59:42;98910.47;;;20.44;75.44
27712;BME280;2377;51.734;8.950;2022-07-09T08:02:09;98898.56;;;20.48;74.95
27712;BME280;2377;51.734;8.950;2022-07-09T08:04:37;98903.94;;;20.37;73.78
27712;BME280;2377;51.734;8.950;2022-07-09T08:07:04;98905.25;;;20.39;74.87
27712;BME280;2377;51.734;8.950;2022-07-09T08:09:31;98909.13;;;20.37;74.21
27712;BME280;2377;51.734;8.950;2022-07-09T08:12:00;98907.75;;;20.29;74.74
27712;BME280;2377;51.734;8.950;2022-07-09T08:14:28;98910.34;;;20.29;74.15
27712;BME280;2377;51.734;8.950;2022-07-09T08:16:55;98903.84;;;20.26;73.36
27712;BME280;2377;51.734;8.950;2022-07-09T08:19:23;98911.47;;;20.06;73.63
27712;BME280;2377;51.734;8.950;2022-07-09T08:21:50;98913.47;;;19.99;73.69
27712;BME280;2377;51.734;8.950;2022-07-09T08:24:17;98913.69;;;19.92;74.26
27712;BME280;2377;51.734;8.950;2022-07-09T08:26:44;98912.41;;;19.95;74.12
27712;BME280;2377;51.734;8.950;2022-07-09T08:29:11;98906.63;;;19.88;74.01
27712;BME280;2377;51.734;8.950;2022-07-09T08:31:39;98898.59;;;19.89;74.28
27712;BME280;2377;51.734;8.950;2022-07-09T08:34:06;98906.91;;;19.91;74.96
27712;BME280;2377;51.734;8.950;2022-07-09T08:36:33;98897.66;;;20.00;75.25
27712;BME280;2377;51.734;8.950;2022-07-09T08:39:01;98898.50;;;20.06;73.96
27712;BME280;2377;51.734;8.950;2022-07-09T08:41:28;98897.00;;;20.15;74.09
27712;BME280;2377;51.734;8.950;2022-07-09T08:43:55;98895.25;;;20.21;73.61
27712;BME280;2377;51.734;8.950;2022-07-09T08:46:22;98884.84;;;20.21;73.61
27712;BME280;2377;51.734;8.950;2022-07-09T08:48:54;98887.94;;;20.18;73.98
27712;BME280;2377;51.734;8.950;2022-07-09T08:51:23;98885.97;;;20.30;73.79
27712;BME280;2377;51.734;8.950;2022-07-09T08:53:54;98881.00;;;20.28;73.96
27712;BME280;2377;51.734;8.950;2022-07-09T08:56:22;98884.84;;;20.21;73.03
27712;BME280;2377;51.734;8.950;2022-07-09T08:58:49;98880.94;;;20.18;73.36
27712;BME280;2377;51.734;8.950;2022-07-09T09:01:16;98878.97;;;20.36;73.53
27712;BME280;2377;51.734;8.950;2022-07-09T09:03:44;98878.53;;;20.44;73.65
27712;BME280;2377;51.734;8.950;2022-07-09T09:06:13;98872.59;;;20.48;73.39
27712;BME280;2377;51.734;8.950;2022-07-09T09:08:43;98879.88;;;20.52;72.31
27712;BME280;2377;51.734;8.950;2022-07-09T09:11:15;98878.41;;;20.61;72.02
27712;BME280;2377;51.734;8.950;2022-07-09T09:13:44;98875.97;;;20.54;71.73
27712;BME280;2377;51.734;8.950;2022-07-09T09:16:12;98878.41;;;20.61;71.76
27712;BME280;2377;51.734;8.950;2022-07-09T09:18:43;98873.50;;;20.69;71.00
27712;BME280;2377;51.734;8.950;2022-07-09T09:21:14;98879.78;;;20.79;71.98
27712;BME280;2377;51.734;8.950;2022-07-09T09:23:44;98875.66;;;20.88;71.56
27712;BME280;2377;51.734;8.950;2022-07-09T09:26:13;98867.38;;;20.91;70.50
27712;BME280;2377;51.734;8.950;2022-07-09T09:28:49;98871.22;;;20.83;71.34
27712;BME280;2377;51.734;8.950;2022-07-09T09:31:21;98863.41;;;20.78;71.02
27712;BME280;2377;51.734;8.950;2022-07-09T09:33:50;98862.34;;;20.74;71.63
27712;BME280;2377;51.734;8.950;2022-07-09T09:36:33;98872.22;;;20.72;71.15
27712;BME280;2377;51.734;8.950;2022-07-09T09:39:13;98865.44;;;20.66;71.32
27712;BME280;2377;51.734;8.950;2022-07-09T09:41:42;98870.63;;;20.66;71.86
27712;BME280;2377;51.734;8.950;2022-07-09T09:44:12;98868.53;;;20.63;71.51
27712;BME280;2377;51.734;8.950;2022-07-09T09:46:41;98869.63;;;20.72;71.63
27712;BME280;2377;51.734;8.950;2022-07-09T09:49:11;98860.00;;;20.73;71.87
27712;BME280;2377;51.734;8.950;2022-07-09T09:51:47;98863.88;;;20.65;71.67
27712;BME280;2377;51.734;8.950;2022-07-09T09:54:18;98866.47;;;20.65;71.49
27712;BME280;2377;51.734;8.950;2022-07-09T09:56:46;98865.94;;;20.63;71.30
27712;BME280;2377;51.734;8.950;2022-07-09T09:59:14;98866.72;;;20.63;71.60
27712;BME280;2377;51.734;8.950;2022-07-09T10:01:44;98878.91;;;20.58;71.45
27712;BME280;2377;51.734;8.950;2022-07-09T10:04:14;98868.53;;;20.63;71.00
27712;BME280;2377;51.734;8.950;2022-07-09T10:06:44;98861.22;;;20.60;71.07
27712;BME280;2377;51.734;8.950;2022-07-09T10:09:13;98859.19;;;20.67;70.54
27712;BME280;2377;51.734;8.950;2022-07-09T10:11:42;98852.97;;;20.68;71.20
27712;BME280;2377;51.734;8.950;2022-07-09T10:17:12;98857.66;;;20.76;70.84
27712;BME280;2377;51.734;8.950;2022-07-09T10:19:52;98852.53;;;20.81;71.28
27712;BME280;2377;51.734;8.950;2022-07-09T10:22:21;98865.53;;;20.86;70.43
27712;BME280;2377;51.734;8.950;2022-07-09T10:24:51;98856.94;;;20.86;71.25
27712;BME280;2377;51.734;8.950;2022-07-09T10:27:19;98861.38;;;20.90;70.52
27712;BME280;2377;51.734;8.950;2022-07-09T10:29:55;98855.59;;;20.73;70.19
27712;BME280;2377;51.734;8.950;2022-07-09T10:32:27;98848.88;;;20.82;69.76
27712;BME280;2377;51.734;8.950;2022-07-09T10:34:58;98854.06;;;20.82;70.15
27712;BME280;2377;51.734;8.950;2022-07-09T10:37:35;98841.09;;;20.87;70.60
27712;BME280;2377;51.734;8.950;2022-07-09T10:40:11;98827.56;;;20.85;70.39
27712;BME280;2377;51.734;8.950;2022-07-09T10:42:39;98826.34;;;21.03;71.08
27712;BME280;2377;51.734;8.950;2022-07-09T10:45:24;98830.81;;;21.23;70.12
27712;BME280;2377;51.734;8.950;2022-07-09T10:47:56;98836.09;;;21.49;69.77
27712;BME280;2377;51.734;8.950;2022-07-09T10:50:26;98833.53;;;21.64;69.75
27712;BME280;2377;51.734;8.950;2022-07-09T10:52:56;98841.31;;;21.80;69.12
27712;BME280;2377;51.734;8.950;2022-07-09T10:55:27;98827.81;;;21.83;66.72
27712;BME280;2377;51.734;8.950;2022-07-09T10:57:54;98830.91;;;21.80;65.91
27712;BME280;2377;51.734;8.950;2022-07-09T11:00:24;98829.91;;;21.76;65.75
27712;BME280;2377;51.734;8.950;2022-07-09T11:02:53;98825.72;;;21.74;66.22
27712;BME280;2377;51.734;8.950;2022-07-09T11:05:21;98825.72;;;21.74;67.07
27712;BME280;2377;51.734;8.950;2022-07-09T11:07:59;98816.59;;;21.77;65.79
27712;BME280;2377;51.734;8.950;2022-07-09T11:10:28;98819.19;;;21.82;65.67
27712;BME280;2377;51.734;8.950;2022-07-09T11:12:56;98817.38;;;21.78;65.12
27712;BME280;2377;51.734;8.950;2022-07-09T11:15:26;98820.25;;;21.86;66.69
27712;BME280;2377;51.734;8.950;2022-07-09T11:18:01;98814.00;;;22.03;65.77
27712;BME280;2377;51.734;8.950;2022-07-09T11:20:31;98809.53;;;22.29;66.08
27712;BME280;2377;51.734;8.950;2022-07-09T11:23:00;98816.03;;;22.47;64.73
27712;BME280;2377;51.734;8.950;2022-07-09T11:25:28;98809.47;;;22.54;64.11
27712;BME280;2377;51.734;8.950;2022-07-09T11:27:57;98819.69;;;22.41;63.21
27712;BME280;2377;51.734;8.950;2022-07-09T11:30:26;98823.09;;;22.26;62.58
27712;BME280;2377;51.734;8.950;2022-07-09T11:32:54;98809.56;;;22.13;63.11
27712;BME280;2377;51.734;8.950;2022-07-09T11:35:27;98809.06;;;22.06;63.56
27712;BME280;2377;51.734;8.950;2022-07-09T11:37:56;98804.38;;;22.08;63.72
27712;BME280;2377;51.734;8.950;2022-07-09T11:40:25;98797.06;;;22.05;64.12
27712;BME280;2377;51.734;8.950;2022-07-09T11:42:53;98793.44;;;22.06;64.52
27712;BME280;2377;51.734;8.950;2022-07-09T11:45:24;98791.56;;;22.17;63.99
27712;BME280;2377;51.734;8.950;2022-07-09T11:48:03;98791.84;;;22.26;64.01
27712;BME280;2377;51.734;8.950;2022-07-09T11:50:33;98789.69;;;22.53;64.66
27712;BME280;2377;51.734;8.950;2022-07-09T11:53:00;98782.34;;;22.66;63.07
27712;BME280;2377;51.734;8.950;2022-07-09T11:55:32;98776.81;;;22.77;61.91
27712;BME280;2377;51.734;8.950;2022-07-09T11:58:06;98782.53;;;22.79;60.60
27712;BME280;2377;51.734;8.950;2022-07-09T12:00:39;98774.75;;;22.69;60.79
27712;BME280;2377;51.734;8.950;2022-07-09T12:03:07;98770.38;;;22.59;59.75
27712;BME280;2377;51.734;8.950;2022-07-09T12:05:36;98769.91;;;22.42;59.27
27712;BME280;2377;51.734;8.950;2022-07-09T12:08:07;98786.59;;;22.36;60.51
27712;BME280;2377;51.734;8.950;2022-07-09T12:10:38;98776.19;;;22.31;61.80
27712;BME280;2377;51.734;8.950;2022-07-09T12:13:06;98768.91;;;22.33;60.74
27712;BME280;2377;51.734;8.950;2022-07-09T12:15:35;98772.03;;;22.30;60.96
27712;BME280;2377;51.734;8.950;2022-07-09T12:18:03;98773.09;;;22.24;61.06
27712;BME280;2377;51.734;8.950;2022-07-09T12:20:32;98769.94;;;22.27;61.22
27712;BME280;2377;51.734;8.950;2022-07-09T12:23:00;98760.59;;;22.15;60.65
27712;BME280;2377;51.734;8.950;2022-07-09T12:25:30;98756.41;;;22.30;62.12
27712;BME280;2377;51.734;8.950;2022-07-09T12:27:59;98756.63;;;22.38;60.79
27712;BME280;2377;51.734;8.950;2022-07-09T12:30:27;98746.16;;;22.54;61.76
27712;BME280;2377;51.734;8.950;2022-07-09T12:32:55;98751.56;;;22.68;61.78
27712;BME280;2377;51.734;8.950;2022-07-09T12:35:25;98750.16;;;22.86;60.66
27712;BME280;2377;51.734;8.950;2022-07-09T12:37:53;98742.09;;;22.87;59.12
27712;BME280;2377;51.734;8.950;2022-07-09T12:40:21;98745.72;;;22.91;60.91
27712;BME280;2377;51.734;8.950;2022-07-09T12:42:49;98734.88;;;23.18;60.42
27712;BME280;2377;51.734;8.950;2022-07-09T12:45:18;98733.94;;;23.38;59.30
27712;BME280;2377;51.734;8.950;2022-07-09T12:47:45;98739.78;;;23.25;58.87
27712;BME280;2377;51.734;8.950;2022-07-09T12:50:13;98731.91;;;23.30;58.90
27712;BME280;2377;51.734;8.950;2022-07-09T12:52:40;98729.50;;;23.39;58.69
27712;BME280;2377;51.734;8.950;2022-07-09T12:55:08;98730.53;;;23.43;58.86
27712;BME280;2377;51.734;8.950;2022-07-09T12:57:36;98727.09;;;23.48;58.20
27712;BME280;2377;51.734;8.950;2022-07-09T13:00:05;98726.06;;;23.43;58.05
27712;BME280;2377;51.734;8.950;2022-07-09T13:02:34;98711.84;;;23.26;57.92
27712;BME280;2377;51.734;8.950;2022-07-09T13:05:01;98715.78;;;23.23;57.62
27712;BME280;2377;51.734;8.950;2022-07-09T13:07:29;98710.94;;;23.46;58.95
27712;BME280;2377;51.734;8.950;2022-07-09T13:09:56;98698.88;;;23.50;58.41
27712;BME280;2377;51.734;8.950;2022-07-09T13:12:23;98698.06;;;23.54;57.78
27712;BME280;2377;51.734;8.950;2022-07-09T13:14:50;98701.50;;;23.50;59.06
27712;BME280;2377;51.734;8.950;2022-07-09T13:17:21;98696.63;;;23.67;58.50
27712;BME280;2377;51.734;8.950;2022-07-09T13:19:49;98695.84;;;23.67;58.56